createdAt,value
2023-05-03T00:04:00.506Z,92968.69
2023-05-03T00:09:04.904Z,92954.22
2023-05-03T00:14:09.121Z,92951.13
2023-05-03T00:19:20.915Z,92941.03
2023-05-03T00:24:32.555Z,92940.63
2023-05-03T00:29:36.599Z,92937.53
2023-05-03T00:34:40.554Z,92940.22
2023-05-03T00:39:44.494Z,92941.41
2023-05-03T00:44:53.316Z,92941.78
2023-05-03T00:49:58.164Z,92938.69
2023-05-03T00:55:02.679Z,92934.78
2023-05-03T01:00:09.676Z,92932.03
2023-05-03T01:05:13.933Z,92938.28
2023-05-03T01:10:43.300Z,92937.09
2023-05-03T01:15:59.283Z,92938.69
2023-05-03T01:21:05.676Z,92935.94
2023-05-03T01:26:19.154Z,92933.59
2023-05-03T01:31:30.747Z,92925.00
2023-05-03T01:36:36.499Z,92934.75
2023-05-03T01:41:42.581Z,92938.69
2023-05-03T01:46:47.302Z,92947.66
2023-05-03T01:51:50.917Z,92934.38
2023-05-03T01:56:54.925Z,92925.41
2023-05-03T02:01:58.872Z,92927.75
2023-05-03T02:07:02.969Z,92933.59
2023-05-03T02:12:07.276Z,92915.63
2023-05-03T02:17:11.895Z,92918.78
2023-05-03T02:22:15.420Z,92922.69
2023-05-03T02:27:19.402Z,92923.47
2023-05-03T02:32:24.228Z,92912.97
2023-05-03T02:37:28.448Z,92909.81
2023-05-03T02:42:33.835Z,92907.88
2023-05-03T02:47:38.497Z,92904.38
2023-05-03T02:52:43.248Z,92902.81
2023-05-03T02:57:46.732Z,92898.91
2023-05-03T03:02:55.411Z,92911.41
2023-05-03T03:07:59.764Z,92917.63
2023-05-03T03:13:04.113Z,92910.63
2023-05-03T03:18:13.978Z,92911.41
2023-05-03T03:23:17.643Z,92915.72
2023-05-03T03:28:22.133Z,92916.91
2023-05-03T03:33:26.529Z,92918.81
2023-05-03T03:38:36.178Z,92914.53
2023-05-03T03:43:43.867Z,92918.06
2023-05-03T03:48:52.348Z,92914.94
2023-05-03T03:53:57.880Z,92920.75
2023-05-03T03:59:05.735Z,92916.09
2023-05-03T04:04:10.160Z,92926.63
2023-05-03T04:09:14.866Z,92924.28
2023-05-03T04:14:18.791Z,92924.31
2023-05-03T04:19:26.299Z,92924.31
2023-05-03T04:24:31.142Z,92930.13
2023-05-03T04:29:35.263Z,92941.06
2023-05-03T04:34:39.456Z,92943.78
2023-05-03T04:39:43.045Z,92936.38
2023-05-03T04:44:46.587Z,92945.72
2023-05-03T04:49:51.040Z,92918.84
2023-05-03T04:54:54.921Z,92954.25
2023-05-03T05:00:09.101Z,92945.69
2023-05-03T05:05:20.547Z,92951.88
2023-05-03T05:10:25.266Z,92948.38
2023-05-03T05:15:30.706Z,92952.22
2023-05-03T05:20:35.548Z,92963.50
2023-05-03T05:25:40.634Z,92970.88
2023-05-03T05:30:44.349Z,92981.00
2023-05-03T05:35:49.576Z,92972.66
2023-05-03T05:40:57.628Z,92981.94
2023-05-03T05:46:02.006Z,92996.19
2023-05-03T05:51:06.444Z,92989.69
2023-05-03T05:56:11.601Z,92995.06
2023-05-03T06:01:15.811Z,92994.63
2023-05-03T06:06:19.325Z,92988.53
2023-05-03T06:11:22.561Z,92993.94
2023-05-03T06:16:26.546Z,93013.63
2023-05-03T06:21:30.515Z,93021.19
2023-05-03T06:26:33.730Z,93022.09
2023-05-03T06:31:38.565Z,93018.50
2023-05-03T06:36:42.072Z,93007.84
2023-05-03T06:41:45.387Z,92999.00
2023-05-03T06:46:49.662Z,93017.69
2023-05-03T06:51:53.104Z,93012.31
2023-05-03T06:56:56.821Z,93014.63
2023-05-03T07:02:00.146Z,93015.06
2023-05-03T07:07:03.393Z,93018.03
2023-05-03T07:12:07.874Z,93029.19
2023-05-03T07:17:11.411Z,93023.00
2023-05-03T07:22:14.963Z,93030.00
2023-05-03T07:27:18.620Z,93025.44
2023-05-03T07:32:22.780Z,93020.59
2023-05-03T07:37:28.210Z,93019.03
2023-05-03T07:42:31.675Z,93035.59
2023-05-03T07:47:38.321Z,93038.19
2023-05-03T07:52:43.728Z,93047.03
2023-05-03T07:57:47.392Z,93050.13
2023-05-03T08:02:50.695Z,93039.06
2023-05-03T08:07:53.947Z,93037.19
2023-05-03T08:12:58.033Z,93030.31
2023-05-03T08:18:01.763Z,93028.28
2023-05-03T08:23:05.754Z,93039.50
2023-05-03T08:28:09.309Z,93043.53
2023-05-03T08:33:13.457Z,93041.69
2023-05-03T08:38:17.576Z,93037.19
2023-05-03T08:43:22.892Z,93054.69
2023-05-03T08:48:27.720Z,93072.84
2023-05-03T08:53:33.457Z,93066.97
2023-05-03T08:58:39.036Z,93049.22
2023-05-03T09:03:54.045Z,93042.88
2023-05-03T09:08:58.701Z,93066.66
2023-05-03T09:14:13.180Z,93074.00
2023-05-03T09:19:17.416Z,93066.88
2023-05-03T09:24:22.584Z,93064.06
2023-05-03T09:29:31.744Z,93062.34
2023-05-03T09:34:37.491Z,93052.50
2023-05-03T09:39:46.030Z,93065.50
2023-05-03T09:44:54.301Z,93068.94
2023-05-03T09:49:57.872Z,93058.25
2023-05-03T09:55:01.397Z,93069.19
2023-05-03T10:00:05.519Z,93066.53
2023-05-03T10:05:16.757Z,93057.59
2023-05-03T10:10:21.714Z,93065.09
2023-05-03T10:15:27.748Z,93075.59
2023-05-03T10:20:55.084Z,93077.47
2023-05-03T10:26:10.007Z,93071.78
2023-05-03T10:31:49.018Z,93068.78
2023-05-03T10:36:54.519Z,93059.63
2023-05-03T10:42:08.644Z,93081.00
2023-05-03T10:47:19.752Z,93089.63
2023-05-03T10:52:41.401Z,93077.66
2023-05-03T10:57:48.628Z,93062.66
2023-05-03T11:03:13.831Z,93077.56
2023-05-03T11:08:22.268Z,93077.91
2023-05-03T11:13:25.590Z,93080.56
2023-05-03T11:18:29.084Z,93075.25
2023-05-03T11:23:33.088Z,93081.47
2023-05-03T11:28:55.834Z,93087.59
2023-05-03T11:33:59.932Z,93086.72
2023-05-03T11:39:06.067Z,93090.59
2023-05-03T11:44:16.891Z,93089.28
2023-05-03T11:49:20.909Z,93083.22
2023-05-03T11:54:27.330Z,93083.28
2023-05-03T11:59:41.485Z,93089.56
2023-05-03T12:04:46.260Z,93090.44
2023-05-03T12:10:00.919Z,93081.13
2023-05-03T12:15:16.225Z,93091.78
2023-05-03T12:25:34.897Z,93095.16
2023-05-03T12:30:40.590Z,93115.13
2023-05-03T12:35:47.709Z,93100.84
2023-05-03T12:40:51.884Z,93115.31
2023-05-03T12:46:20.173Z,93101.97
2023-05-03T12:51:22.843Z,93115.03
2023-05-03T12:56:32.735Z,93110.94
2023-05-03T13:02:38.761Z,93107.41
2023-05-03T13:07:01.803Z,93095.16
2023-05-03T13:12:05.497Z,93099.53
2023-05-03T13:17:08.755Z,93078.69
2023-05-03T13:22:13.282Z,93079.81
2023-05-03T13:27:18.475Z,93067.88
2023-05-03T13:32:21.965Z,93038.25
2023-05-03T13:37:25.721Z,93030.34
2023-05-03T13:42:30.186Z,93060.53
2023-05-03T13:47:53.006Z,93059.44
2023-05-03T13:52:57.269Z,93062.56
2023-05-03T13:58:01.407Z,93067.66
2023-05-03T14:03:05.046Z,93067.50
2023-05-03T14:08:09.018Z,93067.00
2023-05-03T14:13:13.792Z,93075.03
2023-05-03T14:18:17.877Z,93070.84
2023-05-03T14:23:21.357Z,93065.53
2023-05-03T14:28:24.556Z,93074.66
2023-05-03T14:33:28.431Z,93071.72
2023-05-03T14:38:32.343Z,93070.19
2023-05-03T14:43:35.565Z,93082.50
2023-05-03T14:48:39.572Z,93073.47
2023-05-03T14:53:43.201Z,93101.34
2023-05-03T14:58:46.497Z,93096.00
2023-05-03T15:03:50.339Z,93083.00
2023-05-03T15:08:54.847Z,93088.66
2023-05-03T15:13:59.197Z,93098.78
2023-05-03T15:19:03.056Z,93089.38
2023-05-03T15:24:07.350Z,93113.84
2023-05-03T15:29:11.376Z,93106.94
2023-05-03T15:34:15.608Z,93115.22
2023-05-03T15:39:18.840Z,93123.59
2023-05-03T15:44:22.652Z,93119.81
2023-05-03T15:49:27.754Z,93117.28
2023-05-03T15:54:31.973Z,93110.78
2023-05-03T15:59:36.367Z,93118.03
2023-05-03T16:04:40.514Z,93128.31
2023-05-03T16:09:44.233Z,93122.22
2023-05-03T16:14:48.439Z,93129.81
2023-05-03T16:19:52.368Z,93120.50
2023-05-03T16:24:55.980Z,93123.00
2023-05-03T16:30:00.273Z,93119.31
2023-05-03T16:35:04.662Z,93131.66
2023-05-03T16:40:11.949Z,93133.41
2023-05-03T16:45:17.123Z,93137.88
2023-05-03T16:50:21.414Z,93145.34
